ホノルル の空港の天気 - METARとTAF

ホノルル国際空港 ( PHNL / HNL ) - アメリカ ハワイ州ホノルル
飛行場実況気象(Metar)
観測時間07/09 19:53 HST (07/10 05:53 UTC)
風向・風速東北東 5m/s
視程10km以上
天気現象
少しの雲 雲底高度 760m
全天の4割程度の雲 雲底高度 1220m
全天の8割程度の雲 雲底高度 1830m
気温27.2℃
湿度65%
気圧1016hPa
METARPHNL 100553Z 06010KT 10SM FEW025 SCT040 BKN060 27/20 A3001 RMK AO2 SLP160 VCSH N-NE 60000 T02720200 10311 20261 53005
過去の天気等 Google飛行場航空写真 Wunderground天気予報

過去48時間のMETAR

飛行場予報(TAF)
発表時間: 7/09 19:20 HST (7/10 05:20 UTC)
予報対象時間: 9日20時 HST ~ 11日2時 HST
風向・風速東北東 5m/s
視程10km以上
少しの雲 雲底高度 760m
全天の4割程度の雲 雲底高度 1220m
全天の8割程度の雲 雲底高度 2130m
10日10時 HST から
風向・風速東北東 7m/s 瞬間風速 10m/s
視程10km以上
少しの雲 雲底高度 760m
全天の4割程度の雲 雲底高度 1520m
10日20時 HST から
風向・風速北東 5m/s
視程10km以上
少しの雲 雲底高度 760m
全天の4割程度の雲 雲底高度 1520m
PHNL 100520Z 1006/1112 06009KT P6SM FEW025 SCT040 BKN070
FM102000 06014G20KT P6SM FEW025 SCT050
FM110600 05010KT P6SM FEW025 SCT050